Ana Sayfa
METAR-TAF:

METAR-TAF

Havaalanları :

Askeri hava üssü

Khamis Mushait, Suudi Arabistan

Enlem: 18-18N, Boylam: 042-48E, yükseklik: 2066 m

Güncel hava durumu gözlemi

Rapor saat 15:00 UTC de 56 dakika önce yapıldı.
Rüzgar batı/güneybatıdan 8 kt
Sıcaklık 23°C
Nem 50%
Basınç 1023 hPa
Görüş mesafesi: 8000 m
Açık gökyüzü

METAR: OEKM 021500Z 24008KT 8000 SKC 23/12 Q1023 NOSIG

Saat: 18:56 (15:56 UTC)

Tahmin

Rapor saat 11:00 UTC de 4 saat ve 56 dakika önce yapıldı.
Ayın 02'si saat 12 UTC'den ayın 03'si saat 18 UTC'ye kadar geçerli Tahmin
Rüzgar güneybatıdan 14 kt
Görüş mesafesi: 8000 m
2000 ft yükseklikte parçalı bulutlu
Geçici
ayın 02'si saat 12 UTC'den ayın 02'si saat 16 UTC'ye kadar
2500 ft yükseklikte az bulutlu, Kümülonimbus.
Dönüşüyor
ayın 02'si saat 18 UTC'den ayın 02'si saat 20 UTC'ye kadar
Rüzgar değişken yönden 3 kt

TAF: OEKM 021100Z 0212/0318 22014KT 8000 SCT020 TEMPO 0212/0216 FEW025CB BECMG 0218/0220 VRB03KT

4.000'den fazla havaalanı için hava durumu gözlemleri ve tahminleri (METAR ve TAF raporları).

Kullanılabilir istasyonlar harita üzerinde sarı ve kırmızı noktalarla gösterilir.

İstasyonun adını görmek için fareyi noktanın üzerinde gezdirin.

Sonrasında hava gözlem ve tahminlerini görmek için tıklayın.

Haritayı değiştirmek için: yaklaştırmak için siyah artı işaretli yeşil düğmeye ve uzaklaştırmak için de eksi işaretli düğmeye hızla tıklayın; bitişik haritalar için yeşil okları kullanın.


METAR-TAF: